Time;durP1;ratioP1;P1;durP2;ratioP2;P2;SDS_P1;SDS_P2;PMS_P1;PMS_P2;Temp;Humidity;BMP_temperature;BMP_pressure;BME280_temperature;BME280_humidity;BME280_pressure;Samples;Min_cycle;Max_cycle;Signal;HPM_P1;HPM_P2
2023/05/05 00:01:31;;;;;;;8.00;6.70;;;;;;;8.35;100.00;96476.47;7400129;19;20389;-75
2023/05/05 00:03:58;;;;;;;7.10;6.40;;;;;;;8.29;100.00;96467.91;7400398;19;20910;-75
2023/05/05 00:06:27;;;;;;;10.23;6.13;;;;;;;8.36;100.00;96490.41;7398827;19;20936;-75
2023/05/05 00:08:55;;;;;;;10.37;6.37;;;;;;;8.16;100.00;96471.44;7399291;19;20447;-75
2023/05/05 00:11:22;;;;;;;8.03;6.50;;;;;;;8.23;100.00;96471.75;7396659;19;20373;-75
2023/05/05 00:13:50;;;;;;;6.97;5.70;;;;;;;8.45;100.00;96502.53;7401098;19;20391;-75
2023/05/05 00:16:17;;;;;;;7.63;6.20;;;;;;;8.36;100.00;96485.16;7400461;19;20369;-75
2023/05/05 00:18:44;;;;;;;10.63;6.60;;;;;;;8.38;100.00;96457.41;7399527;19;21099;-75
2023/05/05 00:21:11;;;;;;;14.63;7.30;;;;;;;8.54;100.00;96473.53;7398492;19;20418;-75
2023/05/05 00:23:38;;;;;;;6.50;5.90;;;;;;;8.54;100.00;96494.63;7400363;19;20361;-75
2023/05/05 00:26:05;;;;;;;20.20;6.20;;;;;;;8.39;100.00;96500.31;7399144;19;20425;-75
2023/05/05 00:28:32;;;;;;;12.47;6.83;;;;;;;8.05;100.00;96487.84;7399500;19;20928;-75
2023/05/05 00:30:59;;;;;;;19.50;7.07;;;;;;;7.95;100.00;96465.97;7399487;19;20385;-75
2023/05/05 00:33:26;;;;;;;12.03;6.97;;;;;;;7.81;100.00;96459.25;7399904;19;20955;-75
2023/05/05 00:35:53;;;;;;;20.30;7.87;;;;;;;8.18;100.00;96494.84;7398542;19;20460;-75
2023/05/05 00:38:20;;;;;;;10.00;6.67;;;;;;;7.67;100.00;96443.56;7396384;19;20495;-75
2023/05/05 00:40:47;;;;;;;21.43;7.60;;;;;;;7.75;100.00;96453.38;7398263;19;20405;-75
2023/05/05 00:43:14;;;;;;;11.77;6.60;;;;;;;7.83;100.00;96459.72;7394961;19;20407;-75
2023/05/05 00:45:46;;;;;;;11.20;6.50;;;;;;;7.60;100.00;96470.31;7400020;19;20344;-75
2023/05/05 00:48:15;;;;;;;12.03;8.17;;;;;;;8.01;100.00;96474.47;7396332;19;20409;-75
2023/05/05 00:50:43;;;;;;;15.33;6.87;;;;;;;8.12;100.00;96482.88;7399931;19;20355;-75
2023/05/05 00:53:10;;;;;;;9.50;7.03;;;;;;;8.04;100.00;96479.16;7396861;19;20413;-75
2023/05/05 00:55:37;;;;;;;13.77;7.10;;;;;;;7.79;100.00;96464.06;7398369;19;20376;-75
2023/05/05 00:58:04;;;;;;;15.50;7.10;;;;;;;7.48;100.00;96416.72;7396649;19;20393;-75
2023/05/05 01:00:32;;;;;;;8.77;6.20;;;;;;;7.82;100.00;96482.63;7398418;19;20352;-75
2023/05/05 01:02:59;;;;;;;10.07;8.23;;;;;;;7.44;100.00;96437.59;7395033;19;20762;-75
2023/05/05 01:05:32;;;;;;;7.97;7.27;;;;;;;7.59;100.00;96471.38;7398584;19;20435;-75
2023/05/05 01:08:30;;;;;;;16.53;7.53;;;;;;;7.24;100.00;96456.53;7397000;19;20740;-75
2023/05/05 01:11:02;;;;;;;16.63;7.57;;;;;;;7.00;100.00;96415.56;7399945;19;20377;-75
2023/05/05 01:13:54;;;;;;;9.73;6.50;;;;;;;7.46;100.00;96469.63;7400211;19;20456;-75
2023/05/05 01:16:28;;;;;;;14.40;7.03;;;;;;;7.55;100.00;96465.19;7404514;19;20455;-74
2023/05/05 01:19:28;;;;;;;8.70;6.27;;;;;;;7.43;100.00;96470.22;7425159;19;20397;-75
2023/05/05 01:21:59;;;;;;;8.33;6.80;;;;;;;7.11;100.00;96468.66;7432863;19;20368;-75
2023/05/05 01:24:54;;;;;;;8.47;7.43;;;;;;;7.33;100.00;96465.22;7432906;19;20437;-75
2023/05/05 01:27:21;;;;;;;13.37;6.13;;;;;;;7.27;100.00;96467.22;7395001;19;20378;-75
2023/05/05 01:30:19;;;;;;;16.60;7.33;;;;;;;7.47;100.00;96473.03;7396072;19;20412;-75
2023/05/05 01:32:51;;;;;;;10.80;7.23;;;;;;;7.21;100.00;96443.97;7397367;19;20788;-75
2023/05/05 01:35:21;;;;;;;11.70;6.13;;;;;;;7.24;100.00;96459.16;7397744;19;20388;-75
2023/05/05 01:38:04;;;;;;;10.33;6.47;;;;;;;6.93;100.00;96444.09;7395652;19;20424;-75
2023/05/05 01:40:38;;;;;;;8.33;6.40;;;;;;;7.25;100.00;96476.50;7396710;19;20369;-75
2023/05/05 01:43:07;;;;;;;9.63;7.43;;;;;;;7.17;100.00;96471.94;7396816;19;20418;-74
2023/05/05 01:45:38;;;;;;;6.93;6.27;;;;;;;6.71;100.00;96442.25;7396130;19;20389;-75
2023/05/05 01:48:07;;;;;;;8.87;6.53;;;;;;;6.84;100.00;96461.69;7394608;19;20404;-75
2023/05/05 01:50:35;;;;;;;13.33;7.00;;;;;;;6.53;100.00;96466.81;7396902;19;20376;-75
2023/05/05 01:53:04;;;;;;;6.30;5.70;;;;;;;6.59;100.00;96443.88;7395039;19;20401;-75
2023/05/05 01:55:33;;;;;;;7.97;6.43;;;;;;;6.40;100.00;96431.66;7396467;19;20488;-75
2023/05/05 01:58:02;;;;;;;10.73;6.87;;;;;;;6.22;100.00;96449.09;7394850;19;20376;-75
2023/05/05 02:00:30;;;;;;;14.83;6.53;;;;;;;6.38;100.00;96427.78;7396440;19;20396;-75
2023/05/05 02:02:59;;;;;;;7.30;5.53;;;;;;;6.41;100.00;96443.72;7392243;19;20376;-75
2023/05/05 02:05:28;;;;;;;8.03;6.87;;;;;;;6.34;100.00;96448.59;7396683;19;20368;-75
2023/05/05 02:07:57;;;;;;;7.67;6.90;;;;;;;6.57;100.00;96464.41;7394640;19;20456;-75
2023/05/05 02:10:25;;;;;;;7.33;6.30;;;;;;;6.61;100.00;96455.63;7396205;19;20393;-75
2023/05/05 02:12:52;;;;;;;8.20;6.03;;;;;;;6.49;100.00;96461.41;7395197;19;20410;-76
2023/05/05 02:15:22;;;;;;;9.60;6.63;;;;;;;6.53;100.00;96438.72;7395971;19;20396;-75
2023/05/05 02:17:53;;;;;;;7.53;6.33;;;;;;;6.53;100.00;96477.34;7394618;19;20377;-75
2023/05/05 02:20:22;;;;;;;9.70;6.00;;;;;;;6.58;100.00;96450.19;7396523;19;20400;-75
2023/05/05 02:22:49;;;;;;;6.83;5.93;;;;;;;6.27;100.00;96439.56;7394363;19;20377;-75
2023/05/05 02:25:16;;;;;;;7.73;6.10;;;;;;;6.44;100.00;96439.72;7396334;19;20953;-75
2023/05/05 02:27:46;;;;;;;6.83;6.23;;;;;;;6.54;100.00;96473.63;7395044;19;20383;-75
2023/05/05 02:30:17;;;;;;;7.07;6.43;;;;;;;6.52;100.00;96460.03;7393822;19;20373;-75
2023/05/05 02:32:59;;;;;;;9.40;5.97;;;;;;;6.54;100.00;96478.88;7395577;19;20384;-75
2023/05/05 02:35:34;;;;;;;6.97;6.37;;;;;;;6.46;100.00;96443.59;7394443;19;20388;-75
2023/05/05 02:38:04;;;;;;;7.00;6.40;;;;;;;6.47;100.00;96439.91;7394952;19;20745;-75
2023/05/05 02:40:39;;;;;;;7.23;6.47;;;;;;;6.39;100.00;96437.97;7394262;19;20763;-75
2023/05/05 02:43:10;;;;;;;6.90;6.50;;;;;;;6.38;100.00;96454.81;7394844;19;20796;-75
2023/05/05 02:45:37;;;;;;;7.40;6.10;;;;;;;6.23;100.00;96434.91;7394345;19;20376;-75
2023/05/05 02:48:04;;;;;;;9.43;7.00;;;;;;;6.45;100.00;96452.56;7392766;19;20405;-75
2023/05/05 02:50:36;;;;;;;7.17;6.47;;;;;;;6.41;100.00;96416.66;7394861;19;20397;-75
2023/05/05 02:53:25;;;;;;;7.90;6.30;;;;;;;6.17;100.00;96430.06;7393940;19;20376;-75
2023/05/05 02:56:00;;;;;;;8.30;7.37;;;;;;;6.26;100.00;96420.41;7399580;19;20356;-75
2023/05/05 02:58:45;;;;;;;10.77;6.97;;;;;;;6.36;100.00;96451.69;7395593;19;20948;-76
2023/05/05 03:01:28;;;;;;;8.67;7.87;;;;;;;6.28;100.00;96460.28;7393107;19;20401;-76
2023/05/05 03:04:06;;;;;;;7.03;6.17;;;;;;;6.30;100.00;96460.78;7393476;19;20392;-76
2023/05/05 03:06:40;;;;;;;7.40;6.70;;;;;;;6.18;100.00;96458.66;7394235;19;20398;-75
2023/05/05 03:09:14;;;;;;;9.53;5.63;;;;;;;6.03;100.00;96437.19;7391069;19;20741;-75
2023/05/05 03:11:58;;;;;;;11.27;7.10;;;;;;;6.11;100.00;96454.84;7396203;19;20425;-76
2023/05/05 03:14:29;;;;;;;7.80;6.23;;;;;;;6.12;100.00;96451.94;7395538;19;20371;-75
2023/05/05 03:17:00;;;;;;;6.47;5.83;;;;;;;6.11;100.00;96446.97;7402198;19;20381;-75
2023/05/05 03:19:29;;;;;;;7.03;5.90;;;;;;;6.03;100.00;96458.19;7395888;19;20410;-76
2023/05/05 03:21:59;;;;;;;12.10;6.50;;;;;;;6.05;100.00;96458.66;7401934;19;20379;-75
2023/05/05 03:24:27;;;;;;;8.90;7.57;;;;;;;5.75;100.00;96410.94;7400719;19;20376;-75
2023/05/05 03:27:02;;;;;;;8.13;6.40;;;;;;;5.95;100.00;96435.25;7399473;19;20395;-75
2023/05/05 03:29:34;;;;;;;14.33;6.50;;;;;;;5.45;100.00;96407.03;7398856;19;20980;-75
2023/05/05 03:32:03;;;;;;;8.07;7.23;;;;;;;6.02;100.00;96449.53;7399794;19;20397;-75
2023/05/05 03:34:31;;;;;;;6.83;6.13;;;;;;;5.99;100.00;96426.47;7401560;19;20412;-75
2023/05/05 03:37:00;;;;;;;7.00;6.37;;;;;;;6.13;100.00;96458.72;7399534;19;20365;-75
2023/05/05 03:39:27;;;;;;;10.40;8.10;;;;;;;5.77;100.00;96415.91;7399622;19;20556;-75
2023/05/05 03:41:55;;;;;;;6.60;6.00;;;;;;;6.00;100.00;96456.13;7399843;19;20384;-75
2023/05/05 03:44:23;;;;;;;7.43;6.67;;;;;;;6.00;100.00;96435.13;7401244;19;20368;-75
2023/05/05 03:46:50;;;;;;;9.10;7.10;;;;;;;5.94;100.00;96439.72;7399284;19;20381;-75
2023/05/05 03:49:17;;;;;;;7.70;6.13;;;;;;;5.83;100.00;96425.22;7400949;19;20408;-75
2023/05/05 03:51:46;;;;;;;7.40;6.33;;;;;;;5.64;100.00;96415.63;7399559;19;20376;-75
2023/05/05 03:54:13;;;;;;;8.80;5.80;;;;;;;5.61;100.00;96433.78;7400743;19;20364;-76
2023/05/05 03:56:40;;;;;;;7.43;6.53;;;;;;;5.66;100.00;96433.69;7400145;19;20392;-75
2023/05/05 03:59:07;;;;;;;7.63;6.90;;;;;;;5.78;100.00;96443.69;7399147;19;21064;-75
2023/05/05 04:01:34;;;;;;;9.60;6.43;;;;;;;5.85;100.00;96447.47;7399389;19;20945;-75
2023/05/05 04:04:01;;;;;;;7.50;6.70;;;;;;;5.75;100.00;96434.56;7398317;19;20749;-75
2023/05/05 04:06:28;;;;;;;10.70;8.33;;;;;;;5.76;100.00;96454.47;7399289;19;20376;-75
2023/05/05 04:08:55;;;;;;;8.67;7.87;;;;;;;5.48;100.00;96414.34;7399500;19;20785;-75
2023/05/05 04:11:22;;;;;;;7.60;6.80;;;;;;;5.37;100.00;96420.06;7398976;19;20372;-75
2023/05/05 04:13:49;;;;;;;10.10;7.80;;;;;;;5.30;100.00;96395.00;7400884;19;20392;-75
2023/05/05 04:16:17;;;;;;;9.43;7.90;;;;;;;5.49;100.00;96423.78;7399186;19;20376;-75
2023/05/05 04:18:44;;;;;;;9.93;8.20;;;;;;;5.46;100.00;96426.19;7399379;19;20950;-75
2023/05/05 04:21:11;;;;;;;10.83;8.37;;;;;;;5.43;100.00;96421.53;7398680;19;20754;-75
2023/05/05 04:23:39;;;;;;;7.70;6.00;;;;;;;5.29;100.00;96429.38;7398761;19;20377;-75
2023/05/05 04:26:06;;;;;;;9.80;8.33;;;;;;;5.24;100.00;96424.22;7397967;19;20368;-75
2023/05/05 04:28:33;;;;;;;9.23;7.73;;;;;;;5.37;100.00;96438.41;7399461;19;20435;-75
2023/05/05 04:31:01;;;;;;;10.50;7.47;;;;;;;5.29;100.00;96422.28;7398945;19;20375;-75
2023/05/05 04:33:30;;;;;;;10.17;7.60;;;;;;;5.49;100.00;96423.00;7396955;19;20400;-75
2023/05/05 04:35:57;;;;;;;10.43;6.50;;;;;;;5.77;100.00;96442.91;7398788;19;20393;-75
2023/05/05 04:38:24;;;;;;;9.53;8.03;;;;;;;5.76;100.00;96430.09;7396502;19;20436;-75
2023/05/05 04:40:52;;;;;;;8.90;6.13;;;;;;;5.69;100.00;96440.97;7398713;19;20365;-75
2023/05/05 04:43:19;;;;;;;9.87;7.60;;;;;;;5.60;100.00;96380.53;7413294;19;20456;-75
2023/05/05 04:45:55;;;;;;;8.10;7.30;;;;;;;6.32;100.00;96448.13;7398664;19;20389;-75
2023/05/05 04:48:26;;;;;;;7.57;6.97;;;;;;;6.04;100.00;96387.03;7396970;19;20906;-75
2023/05/05 04:50:53;;;;;;;7.10;6.47;;;;;;;6.23;100.00;96411.28;7398853;19;20421;-76
2023/05/05 04:53:20;;;;;;;10.53;7.13;;;;;;;6.25;100.00;96431.97;7397074;19;20471;-76
2023/05/05 04:55:47;;;;;;;14.33;7.90;;;;;;;6.16;100.00;96437.16;7398943;19;20388;-75
2023/05/05 04:58:14;;;;;;;7.47;6.77;;;;;;;6.18;100.00;96434.25;7396674;19;20430;-75
2023/05/05 05:00:42;;;;;;;9.13;8.27;;;;;;;6.40;100.00;96451.88;7399028;19;20400;-75
2023/05/05 05:03:09;;;;;;;9.53;7.80;;;;;;;6.44;100.00;96427.38;7397884;19;20368;-75
2023/05/05 05:05:36;;;;;;;8.17;7.17;;;;;;;6.68;100.00;96461.25;7398980;19;20400;-75
2023/05/05 05:08:03;;;;;;;8.67;7.47;;;;;;;6.58;100.00;96450.19;7396940;19;20417;-75
2023/05/05 05:10:30;;;;;;;10.20;7.20;;;;;;;6.61;100.00;96431.97;7398287;19;20933;-75
2023/05/05 05:12:57;;;;;;;14.50;8.10;;;;;;;6.67;100.00;96446.53;7397286;19;20397;-76
2023/05/05 05:15:24;;;;;;;7.73;7.03;;;;;;;7.07;100.00;96471.09;7398562;19;20443;-75
2023/05/05 05:17:51;;;;;;;8.00;7.30;;;;;;;7.05;100.00;96454.84;7396746;19;20380;-75
2023/05/05 05:20:18;;;;;;;8.80;7.77;;;;;;;7.18;100.00;96407.75;7398076;19;20400;-75
2023/05/05 05:22:45;;;;;;;8.83;7.37;;;;;;;7.77;100.00;96488.06;7396248;19;20377;-75
2023/05/05 05:25:16;;;;;;;7.53;6.93;;;;;;;7.78;100.00;96476.44;7398558;19;20395;-75
2023/05/05 05:27:43;;;;;;;7.63;6.93;;;;;;;7.93;100.00;96448.91;7397022;19;20405;-75
2023/05/05 05:30:16;;;;;;;8.97;7.90;;;;;;;7.90;100.00;96452.16;7395493;19;20415;-75
2023/05/05 05:32:43;;;;;;;7.67;6.87;;;;;;;8.34;100.00;96469.66;7396808;19;20385;-75
2023/05/05 05:35:10;;;;;;;11.27;8.13;;;;;;;8.35;100.00;96480.97;7395616;19;20383;-75
2023/05/05 05:37:37;;;;;;;11.90;7.90;;;;;;;8.62;100.00;96472.00;7394579;19;20538;-75
2023/05/05 05:40:05;;;;;;;11.87;7.90;;;;;;;8.76;100.00;96459.44;7393205;19;20773;-75
2023/05/05 05:42:33;;;;;;;8.60;7.30;;;;;;;8.98;100.00;96467.19;7396517;19;20377;-75
2023/05/05 05:45:00;;;;;;;9.40;7.53;;;;;;;9.13;100.00;96469.34;7396821;19;20873;-75
2023/05/05 05:47:28;;;;;;;8.50;7.63;;;;;;;9.38;100.00;96480.94;7396515;19;20928;-75
2023/05/05 05:49:56;;;;;;;11.60;7.83;;;;;;;9.58;100.00;96486.63;7393837;19;20432;-75
2023/05/05 05:52:23;;;;;;;11.80;7.93;;;;;;;9.77;100.00;96468.56;7397048;19;20377;-74
2023/05/05 05:54:50;;;;;;;10.03;7.73;;;;;;;10.02;100.00;96483.53;7394817;19;20750;-74
2023/05/05 05:57:17;;;;;;;9.43;8.53;;;;;;;10.22;100.00;96471.47;7396692;19;20378;-74
2023/05/05 05:59:45;;;;;;;9.57;7.33;;;;;;;10.63;100.00;96497.16;7393223;19;20428;-74
2023/05/05 06:02:11;;;;;;;10.87;7.20;;;;;;;10.53;100.00;96465.81;7397158;19;20397;-74
2023/05/05 06:04:39;;;;;;;7.70;6.60;;;;;;;10.93;100.00;96481.22;7393951;19;20416;-74
2023/05/05 06:07:06;;;;;;;7.33;6.63;;;;;;;11.30;100.00;96507.84;7397023;19;20743;-74
2023/05/05 06:09:32;;;;;;;9.20;6.60;;;;;;;11.40;100.00;96499.50;7395277;19;20397;-74
2023/05/05 06:12:02;;;;;;;7.50;6.90;;;;;;;11.47;100.00;96494.44;7397924;19;20691;-74
2023/05/05 06:14:29;;;;;;;8.20;7.40;;;;;;;11.35;100.00;96471.38;7394761;19;20405;-75
2023/05/05 06:16:56;;;;;;;8.77;7.00;;;;;;;11.52;100.00;96467.75;7393150;19;20909;-75
2023/05/05 06:19:25;;;;;;;7.70;6.93;;;;;;;11.82;100.00;96495.63;7394132;19;20428;-75
2023/05/05 06:21:52;;;;;;;7.50;6.80;;;;;;;12.06;100.00;96499.41;7396561;19;20380;-75
2023/05/05 06:24:20;;;;;;;6.77;6.07;;;;;;;11.91;100.00;96495.53;7394499;19;20393;-76
2023/05/05 06:26:47;;;;;;;5.30;4.80;;;;;;;12.19;100.00;96503.63;7398642;19;20369;-76
2023/05/05 06:29:15;;;;;;;9.87;5.87;;;;;;;12.24;100.00;96495.44;7395810;19;20404;-75
2023/05/05 06:31:41;;;;;;;6.17;5.67;;;;;;;12.53;100.00;96501.59;7396641;19;20360;-75
2023/05/05 06:34:08;;;;;;;6.77;6.07;;;;;;;12.41;100.00;96475.84;7395515;19;20378;-75
2023/05/05 06:36:35;;;;;;;6.10;5.50;;;;;;;12.68;100.00;96500.91;7397024;19;20384;-76
2023/05/05 06:39:02;;;;;;;6.40;5.73;;;;;;;12.71;100.00;96501.03;7395465;19;20397;-75
2023/05/05 06:41:29;;;;;;;6.50;5.60;;;;;;;12.81;100.00;96493.69;7396082;19;20711;-75
2023/05/05 06:43:56;;;;;;;6.67;4.90;;;;;;;13.07;100.00;96515.28;7395770;19;20371;-75
2023/05/05 06:46:23;;;;;;;4.97;4.57;;;;;;;12.80;100.00;96482.28;7395147;19;20766;-75
2023/05/05 06:48:50;;;;;;;9.00;5.50;;;;;;;13.42;100.00;96530.69;7396877;19;20424;-76
2023/05/05 06:51:17;;;;;;;6.67;4.87;;;;;;;13.75;100.00;96517.09;7401199;19;20380;-76
2023/05/05 06:53:44;;;;;;;8.73;5.00;;;;;;;13.88;100.00;96529.19;7402497;19;20390;-75
2023/05/05 06:56:11;;;;;;;10.23;5.27;;;;;;;13.60;99.98;96492.81;7400807;19;20345;-75
2023/05/05 06:58:38;;;;;;;5.47;5.10;;;;;;;13.91;98.28;96507.28;7401939;19;20424;-75
2023/05/05 07:01:05;;;;;;;7.83;5.20;;;;;;;14.26;98.21;96517.19;7400742;19;20368;-75
2023/05/05 07:03:32;;;;;;;6.03;4.50;;;;;;;14.34;97.06;96529.53;7401736;19;20393;-75
2023/05/05 07:05:59;;;;;;;5.57;4.60;;;;;;;14.21;95.71;96499.63;7400961;19;20413;-75
2023/05/05 07:08:26;;;;;;;5.87;3.87;;;;;;;14.19;97.12;96518.59;7405875;19;20440;-75
2023/05/05 07:10:53;;;;;;;4.70;4.27;;;;;;;14.06;95.21;96493.19;7431014;19;20384;-76
2023/05/05 07:13:20;;;;;;;5.50;4.83;;;;;;;14.14;93.94;96496.78;7436977;19;20404;-76
2023/05/05 07:15:48;;;;;;;7.00;4.37;;;;;;;14.36;95.63;96488.19;7435815;19;20376;-76
2023/05/05 07:18:15;;;;;;;6.57;5.00;;;;;;;14.53;94.10;96502.25;7415296;19;20421;-75
2023/05/05 07:20:43;;;;;;;6.50;4.50;;;;;;;14.81;93.48;96494.88;7400471;19;20464;-75
2023/05/05 07:23:10;;;;;;;8.37;5.00;;;;;;;14.89;91.56;96517.09;7403543;19;20372;-76
2023/05/05 07:25:37;;;;;;;5.50;5.00;;;;;;;14.76;94.81;96522.53;7400311;19;20389;-75
2023/05/05 07:28:04;;;;;;;8.03;3.90;;;;;;;15.15;91.51;96524.47;7402975;19;20341;-75
2023/05/05 07:30:31;;;;;;;5.40;4.00;;;;;;;15.22;91.58;96498.72;7401688;19;20392;-75
2023/05/05 07:32:58;;;;;;;6.60;4.37;;;;;;;15.52;88.41;96504.25;7401627;19;20360;-77
2023/05/05 07:35:26;;;;;;;5.50;4.33;;;;;;;15.62;87.10;96522.38;7400209;19;20468;-76
2023/05/05 07:37:53;;;;;;;6.67;5.77;;;;;;;16.01;86.40;96506.25;7400042;19;21000;-77
2023/05/05 07:40:20;;;;;;;5.30;4.90;;;;;;;15.53;84.01;96511.13;7397812;19;20398;-76
2023/05/05 07:42:47;;;;;;;8.53;5.00;;;;;;;15.46;85.89;96523.53;7401200;19;20386;-76
2023/05/05 07:45:14;;;;;;;7.03;5.00;;;;;;;15.24;87.18;96487.75;7397403;19;20786;-77
2023/05/05 07:47:41;;;;;;;8.33;4.67;;;;;;;15.12;84.86;96483.31;7403009;19;20714;-76
2023/05/05 07:50:08;;;;;;;5.53;5.03;;;;;;;15.46;85.17;96496.88;7397787;19;20439;-76
2023/05/05 07:52:35;;;;;;;5.20;4.70;;;;;;;15.81;86.97;96470.88;7401435;19;20404;-77
2023/05/05 07:55:11;;;;;;;6.23;5.10;;;;;;;15.64;84.19;96458.03;7400399;19;20391;-76
2023/05/05 07:57:38;;;;;;;5.87;5.37;;;;;;;16.04;83.14;96504.78;7401323;19;20407;-77
2023/05/05 08:00:06;;;;;;;7.13;5.03;;;;;;;15.42;84.82;96485.41;7396055;19;20462;-76
2023/05/05 08:02:40;;;;;;;5.40;4.90;;;;;;;16.19;85.59;96507.31;7400007;19;20349;-77
2023/05/05 08:05:07;;;;;;;6.10;5.60;;;;;;;15.95;84.10;96505.78;7397618;19;20397;-76
2023/05/05 08:07:39;;;;;;;8.50;6.70;;;;;;;16.07;83.43;96498.72;7398294;19;20761;-77
2023/05/05 08:10:09;;;;;;;8.50;5.20;;;;;;;16.27;82.70;96486.81;7407115;19;20425;-76
2023/05/05 08:12:36;;;;;;;4.07;3.73;;;;;;;16.16;83.91;96489.34;7403110;19;20376;-76
2023/05/05 08:15:04;;;;;;;6.00;5.00;;;;;;;16.56;84.47;96496.03;7400039;19;20385;-76
2023/05/05 08:17:51;;;;;;;5.80;5.30;;;;;;;16.69;83.15;96483.25;7398237;19;20411;-76
2023/05/05 08:20:19;;;;;;;5.43;4.23;;;;;;;16.84;84.78;96495.66;7400688;19;20463;-76
2023/05/05 08:22:47;;;;;;;6.50;5.10;;;;;;;16.76;81.82;96486.78;7398710;19;20429;-76
2023/05/05 08:25:14;;;;;;;5.30;4.70;;;;;;;17.55;82.16;96512.53;7395092;19;20757;-76
2023/05/05 08:27:42;;;;;;;8.33;4.30;;;;;;;17.49;81.55;96502.50;7398763;19;20377;-76
2023/05/05 08:30:09;;;;;;;6.80;5.03;;;;;;;17.68;78.73;96500.47;7397685;19;20996;-77
2023/05/05 08:32:37;;;;;;;8.70;6.07;;;;;;;17.44;78.74;96472.28;7398622;19;20388;-76
2023/05/05 08:35:05;;;;;;;7.10;6.13;;;;;;;17.31;78.47;96478.28;7397547;19;20817;-76
2023/05/05 08:37:32;;;;;;;6.03;5.20;;;;;;;17.64;79.49;96485.50;7398601;19;20406;-76
2023/05/05 08:39:59;;;;;;;6.07;5.47;;;;;;;17.88;78.34;96476.16;7395094;19;20418;-76
2023/05/05 08:42:29;;;;;;;6.00;5.47;;;;;;;18.18;80.08;96498.22;7398453;19;20409;-76
2023/05/05 08:45:06;;;;;;;10.70;5.97;;;;;;;18.18;76.48;96481.38;7397514;19;20359;-76
2023/05/05 08:47:38;;;;;;;5.47;4.97;;;;;;;18.23;76.49;96481.03;7399201;19;20349;-76
2023/05/05 08:50:06;;;;;;;5.30;4.73;;;;;;;18.38;76.95;96474.63;7395286;19;20969;-76
2023/05/05 08:52:42;;;;;;;9.43;5.50;;;;;;;18.05;76.24;96494.28;7399300;19;20403;-76
2023/05/05 08:55:16;;;;;;;4.57;4.17;;;;;;;18.53;76.23;96484.28;7399298;19;20400;-76
2023/05/05 08:57:50;;;;;;;4.50;4.10;;;;;;;18.61;74.12;96493.91;7400957;19;20889;-76
2023/05/05 09:00:18;;;;;;;5.30;4.50;;;;;;;18.78;73.41;96497.06;7399620;19;20370;-76
2023/05/05 09:02:49;;;;;;;4.30;3.90;;;;;;;18.69;73.14;96493.97;7396712;19;20368;-77
2023/05/05 09:05:16;;;;;;;4.10;3.57;;;;;;;18.58;74.18;96480.50;7396809;19;20393;-77
2023/05/05 09:07:46;;;;;;;4.23;3.80;;;;;;;18.88;74.65;96501.72;7397185;19;20713;-76
2023/05/05 09:10:13;;;;;;;4.43;4.03;;;;;;;18.59;73.32;96490.84;7398709;19;20372;-76
2023/05/05 09:12:40;;;;;;;5.20;4.70;;;;;;;18.38;73.37;96469.28;7395559;19;20356;-76
2023/05/05 09:15:10;;;;;;;4.60;3.73;;;;;;;18.21;72.38;96478.72;7398185;19;20463;-76
2023/05/05 09:17:38;;;;;;;4.70;4.07;;;;;;;18.30;72.71;96460.44;7398192;19;20420;-76
2023/05/05 09:20:06;;;;;;;4.53;4.03;;;;;;;18.41;72.21;96486.50;7396736;19;20429;-76
2023/05/05 09:22:44;;;;;;;4.00;3.70;;;;;;;18.36;72.05;96484.19;7396680;19;20373;-76
2023/05/05 09:25:16;;;;;;;5.93;5.37;;;;;;;18.54;72.59;96480.47;7396788;19;20425;-76
2023/05/05 09:27:48;;;;;;;4.67;4.17;;;;;;;18.71;71.27;96481.75;7397039;19;20386;-76
2023/05/05 09:30:23;;;;;;;4.10;3.70;;;;;;;18.90;72.23;96457.31;7397027;19;20358;-76
2023/05/05 09:32:52;;;;;;;5.33;3.83;;;;;;;18.79;73.53;96467.22;7398661;19;20373;-76
2023/05/05 09:35:20;;;;;;;3.87;3.57;;;;;;;18.99;73.39;96459.66;7395758;19;20381;-76
2023/05/05 09:37:47;;;;;;;12.00;4.70;;;;;;;19.40;71.22;96467.44;7397060;19;20728;-76
2023/05/05 09:40:17;;;;;;;4.53;4.10;;;;;;;18.96;72.07;96481.84;7395792;19;20901;-76
2023/05/05 09:42:45;;;;;;;3.77;3.47;;;;;;;19.46;71.53;96472.03;7397594;19;20413;-76
2023/05/05 09:45:17;;;;;;;6.30;5.80;;;;;;;19.40;70.22;96484.31;7394658;19;20385;-76
2023/05/05 09:47:45;;;;;;;4.50;4.10;;;;;;;19.45;70.26;96459.78;7397489;19;20411;-76
2023/05/05 09:50:15;;;;;;;6.97;4.90;;;;;;;19.35;69.79;96454.41;7400349;19;20348;-77
2023/05/05 09:53:00;;;;;;;4.60;4.20;;;;;;;19.64;71.44;96466.00;7400335;19;20350;-76
2023/05/05 09:55:29;;;;;;;5.43;4.40;;;;;;;19.73;70.14;96463.69;7397835;19;20365;-76
2023/05/05 09:58:15;;;;;;;5.47;4.40;;;;;;;19.21;71.96;96465.84;7396093;19;20343;-76
2023/05/05 10:00:42;;;;;;;7.33;5.20;;;;;;;19.63;71.29;96475.16;7396681;19;20979;-76
2023/05/05 10:03:09;;;;;;;3.90;3.60;;;;;;;19.97;75.12;96467.53;7395694;19;20386;-76
2023/05/05 10:05:53;;;;;;;4.10;3.77;;;;;;;20.15;69.82;96462.16;7395511;19;20784;-76
2023/05/05 10:08:32;;;;;;;6.47;4.00;;;;;;;19.98;68.97;96480.56;7395696;19;20425;-76
2023/05/05 10:11:05;;;;;;;5.10;4.60;;;;;;;20.02;70.18;96485.94;7399271;19;20379;-76
2023/05/05 10:13:35;;;;;;;5.60;4.27;;;;;;;20.25;71.22;96482.88;7397865;19;20385;-76
2023/05/05 10:16:03;;;;;;;4.50;4.17;;;;;;;19.82;70.28;96452.59;7394757;19;20768;-75
2023/05/05 10:18:31;;;;;;;4.77;4.37;;;;;;;20.32;72.13;96488.25;7397218;19;20480;-75
2023/05/05 10:21:00;;;;;;;4.70;4.30;;;;;;;19.97;70.99;96465.63;7394650;19;20726;-75
2023/05/05 10:23:35;;;;;;;7.70;4.60;;;;;;;20.38;69.94;96481.31;7395676;19;20384;-75
2023/05/05 10:26:05;;;;;;;7.17;4.77;;;;;;;20.39;69.47;96485.53;7393496;19;20391;-75
2023/05/05 10:28:40;;;;;;;6.00;5.43;;;;;;;20.66;70.94;96480.53;7396047;19;20412;-75
2023/05/05 10:31:15;;;;;;;6.93;5.67;;;;;;;20.74;70.21;96470.53;7395348;19;20383;-75
2023/05/05 10:34:47;;;;;;;5.80;5.30;;;;;;;20.84;73.28;96465.13;7394871;19;20388;-75
2023/05/05 10:37:17;;;;;;;6.70;5.23;;;;;;;21.08;71.39;96466.16;7392812;19;20941;-75
2023/05/05 10:39:44;;;;;;;6.50;5.90;;;;;;;21.24;69.75;96439.59;7395679;19;20406;-75
2023/05/05 10:42:13;;;;;;;7.27;6.43;;;;;;;21.08;71.53;96441.97;7394692;19;20494;-75
2023/05/05 10:44:41;;;;;;;7.53;6.07;;;;;;;21.08;71.46;96441.19;7394649;19;20357;-75
2023/05/05 10:47:08;;;;;;;6.03;5.53;;;;;;;21.24;71.22;96449.59;7395981;19;20877;-75
2023/05/05 10:50:16;;;;;;;7.80;7.10;;;;;;;21.14;69.62;96461.16;7394502;19;20957;-75
2023/05/05 10:52:50;;;;;;;7.47;6.63;;;;;;;21.22;69.51;96439.19;7393497;19;20360;-75
2023/05/05 10:55:27;;;;;;;6.00;5.43;;;;;;;21.47;69.43;96449.84;7391934;19;20975;-75
2023/05/05 10:57:54;;;;;;;7.10;6.40;;;;;;;21.60;70.91;96425.16;7390863;19;20373;-75
2023/05/05 11:00:39;;;;;;;6.83;6.13;;;;;;;21.81;71.23;96439.25;7392950;19;20524;-75
2023/05/05 11:03:15;;;;;;;6.10;5.37;;;;;;;22.21;69.50;96437.00;7392215;19;20365;-75
2023/05/05 11:06:07;;;;;;;7.33;5.60;;;;;;;21.92;68.58;96433.00;7392616;19;20483;-75
2023/05/05 11:08:39;;;;;;;7.33;5.43;;;;;;;21.92;69.42;96433.00;7391939;19;20413;-75
2023/05/05 11:11:06;;;;;;;7.03;5.30;;;;;;;21.88;69.73;96418.78;7391117;19;20396;-75
2023/05/05 11:13:33;;;;;;;6.63;6.07;;;;;;;22.04;68.23;96414.44;7392625;19;20966;-74
2023/05/05 11:16:04;;;;;;;7.10;6.40;;;;;;;21.93;69.91;96394.16;7391031;19;20388;-74
2023/05/05 11:18:38;;;;;;;8.40;7.47;;;;;;;22.10;67.81;96428.25;7392824;19;20442;-75
2023/05/05 11:21:06;;;;;;;7.10;6.50;;;;;;;22.33;68.26;96422.28;7391415;19;20377;-75
2023/05/05 11:23:33;;;;;;;6.93;6.23;;;;;;;21.61;68.17;96402.47;7394003;19;20891;-75
2023/05/05 11:26:00;;;;;;;7.30;6.70;;;;;;;21.89;68.77;96410.31;7392190;19;20362;-75
2023/05/05 11:28:30;;;;;;;7.10;6.30;;;;;;;22.22;69.47;96373.88;7395649;19;20400;-75
2023/05/05 11:30:59;;;;;;;6.83;6.03;;;;;;;22.78;69.89;96417.53;7395844;19;20372;-74
2023/05/05 11:33:35;;;;;;;6.93;6.10;;;;;;;22.61;69.75;96383.47;7391754;19;20412;-74
2023/05/05 11:36:05;;;;;;;6.77;6.07;;;;;;;22.88;70.49;96413.97;7396556;19;20430;-74
2023/05/05 11:38:47;;;;;;;7.97;7.27;;;;;;;22.69;68.66;96407.22;7400105;19;20401;-75
2023/05/05 11:41:25;;;;;;;7.83;6.97;;;;;;;22.56;68.39;96395.44;7403081;19;20902;-74
2023/05/05 11:44:12;;;;;;;8.90;7.87;;;;;;;22.28;70.99;96406.53;7400404;19;20390;-74
2023/05/05 11:46:51;;;;;;;7.00;6.50;;;;;;;22.73;70.05;96399.13;7399986;19;20455;-74